Time;durP1;ratioP1;P1;durP2;ratioP2;P2;SDS_P1;SDS_P2;PMS_P1;PMS_P2;Temp;Humidity;BMP_temperature;BMP_pressure;BME280_temperature;BME280_humidity;BME280_pressure;Samples;Min_cycle;Max_cycle;Signal;HPM_P1;HPM_P2
2024/01/12 00:02:23;;;;;;;36.93;21.97;;;;;;;-1.34;100.00;103168.38;5026452;28;20064;-62
2024/01/12 00:04:49;;;;;;;38.60;23.13;;;;;;;-1.35;100.00;103169.06;5026259;28;20032;-62
2024/01/12 00:07:14;;;;;;;41.10;22.90;;;;;;;-1.33;100.00;103175.25;5026705;28;20189;-62
2024/01/12 00:09:42;;;;;;;45.23;23.80;;;;;;;-1.33;100.00;103169.25;5026843;28;20033;-62
2024/01/12 00:12:07;;;;;;;41.60;23.60;;;;;;;-1.33;100.00;103166.69;5026426;28;20268;-62
2024/01/12 00:14:33;;;;;;;37.47;22.63;;;;;;;-1.33;100.00;103174.34;5026845;28;20021;-61
2024/01/12 00:16:58;;;;;;;39.70;23.13;;;;;;;-1.32;100.00;103178.72;5026455;28;20075;-62
2024/01/12 00:19:23;;;;;;;41.07;22.57;;;;;;;-1.33;100.00;103176.88;5025906;28;20029;-62
2024/01/12 00:21:48;;;;;;;37.83;22.10;;;;;;;-1.32;100.00;103166.00;5026367;28;20493;-62
2024/01/12 00:24:14;;;;;;;38.73;23.60;;;;;;;-1.32;100.00;103171.09;5026666;28;20041;-62
2024/01/12 00:26:39;;;;;;;42.03;22.50;;;;;;;-1.33;100.00;103172.72;5026512;28;20535;-62
2024/01/12 00:29:04;;;;;;;40.93;22.57;;;;;;;-1.32;100.00;103168.53;5025962;28;20039;-62
2024/01/12 00:31:29;;;;;;;39.47;22.50;;;;;;;-1.31;100.00;103174.53;5026236;28;20041;-62
2024/01/12 00:33:55;;;;;;;43.60;22.73;;;;;;;-1.32;100.00;103168.53;5026756;28;20025;-62
2024/01/12 00:36:20;;;;;;;40.17;22.87;;;;;;;-1.32;100.00;103171.09;5026438;28;20381;-63
2024/01/12 00:38:45;;;;;;;39.87;21.73;;;;;;;-1.32;100.00;103173.63;5026450;28;20026;-63
2024/01/12 00:41:11;;;;;;;37.03;21.67;;;;;;;-1.31;100.00;103169.47;5025841;28;20028;-62
2024/01/12 00:43:36;;;;;;;37.10;22.87;;;;;;;-1.31;100.00;103172.88;5026279;28;20540;-62
2024/01/12 00:46:02;;;;;;;39.40;22.90;;;;;;;-1.31;100.00;103172.00;5026286;28;20022;-62
2024/01/12 00:48:27;;;;;;;37.37;21.33;;;;;;;-1.31;100.00;103172.00;5026658;28;20029;-61
2024/01/12 00:50:52;;;;;;;39.80;22.67;;;;;;;-1.31;100.00;103183.06;5025759;28;20488;-62
2024/01/12 00:53:18;;;;;;;39.47;21.90;;;;;;;-1.32;100.00;103176.16;5025836;28;20021;-62
2024/01/12 00:55:43;;;;;;;42.73;23.37;;;;;;;-1.30;100.00;103182.34;5026115;28;20250;-62
2024/01/12 00:58:09;;;;;;;36.00;20.80;;;;;;;-1.31;100.00;103177.97;5025877;28;20052;-62
2024/01/12 01:00:35;;;;;;;34.73;20.90;;;;;;;-1.31;100.00;103180.53;5026196;28;20409;-62
2024/01/12 01:03:05;;;;;;;40.13;21.60;;;;;;;-1.30;100.00;103179.81;5026298;28;20033;-62
2024/01/12 01:05:30;;;;;;;37.07;22.40;;;;;;;-1.30;100.00;103178.88;5026118;28;20029;-63
2024/01/12 01:07:55;;;;;;;39.93;23.97;;;;;;;-1.30;100.00;103181.44;5026275;28;20378;-63
2024/01/12 01:10:21;;;;;;;39.33;22.63;;;;;;;-1.31;100.00;103172.88;5027629;28;20067;-62
2024/01/12 01:12:46;;;;;;;41.80;23.77;;;;;;;-1.30;100.00;103178.88;5029877;28;20056;-62
2024/01/12 01:15:13;;;;;;;41.23;23.13;;;;;;;-1.29;100.00;103180.69;5029531;28;20018;-62
2024/01/12 01:17:39;;;;;;;37.63;22.57;;;;;;;-1.30;100.00;103187.44;5030033;28;20095;-62
2024/01/12 01:20:05;;;;;;;38.20;22.53;;;;;;;-1.30;100.00;103181.44;5029213;28;20017;-62
2024/01/12 01:22:33;;;;;;;43.97;24.17;;;;;;;-1.30;100.00;103190.00;5029657;28;20025;-62
2024/01/12 01:24:59;;;;;;;41.07;22.97;;;;;;;-1.29;100.00;103184.16;5029566;28;20022;-62
2024/01/12 01:27:24;;;;;;;41.03;22.30;;;;;;;-1.29;100.00;103191.78;5026450;28;20021;-62
2024/01/12 01:29:50;;;;;;;39.43;23.67;;;;;;;-1.29;100.00;103194.34;5024154;28;20025;-62
2024/01/12 01:32:15;;;;;;;40.17;22.57;;;;;;;-1.29;100.00;103196.88;5026045;28;20428;-62
2024/01/12 01:34:40;;;;;;;36.30;22.63;;;;;;;-1.28;100.00;103202.88;5026951;28;20029;-62
2024/01/12 01:37:07;;;;;;;43.30;22.93;;;;;;;-1.29;100.00;103214.69;5027647;28;20801;-62
2024/01/12 01:39:32;;;;;;;39.83;22.73;;;;;;;-1.28;100.00;103211.44;5026557;28;20049;-62
2024/01/12 01:41:57;;;;;;;39.90;21.10;;;;;;;-1.29;100.00;103212.16;5027490;28;20033;-62
2024/01/12 01:44:25;;;;;;;37.10;22.53;;;;;;;-1.29;100.00;103219.78;5026688;28;20053;-62
2024/01/12 01:46:51;;;;;;;39.70;21.77;;;;;;;-1.29;100.00;103227.41;5027505;28;20784;-62
2024/01/12 01:49:17;;;;;;;35.67;21.43;;;;;;;-1.29;100.00;103219.78;5045078;28;20881;-63
2024/01/12 01:51:42;;;;;;;38.17;21.43;;;;;;;-1.28;100.00;103215.63;5034757;28;20029;-62
2024/01/12 01:54:08;;;;;;;41.27;22.40;;;;;;;-1.27;100.00;103214.88;5039255;28;20025;-62
2024/01/12 01:56:38;;;;;;;41.90;21.60;;;;;;;-1.29;100.00;103207.06;5026761;28;20056;-62
2024/01/12 01:59:03;;;;;;;43.23;22.23;;;;;;;-1.29;100.00;103212.16;5043157;28;20461;-62
2024/01/12 02:01:30;;;;;;;39.10;22.87;;;;;;;-1.29;100.00;103217.25;5036163;28;20036;-62
2024/01/12 02:03:55;;;;;;;40.57;23.23;;;;;;;-1.28;100.00;103210.53;5042867;28;20025;-62
2024/01/12 02:06:21;;;;;;;36.77;22.20;;;;;;;-1.29;100.00;103208.69;5045725;28;20037;-62
2024/01/12 02:08:46;;;;;;;34.70;21.30;;;;;;;-1.30;100.00;103205.25;5027635;28;20083;-61
2024/01/12 02:11:12;;;;;;;40.13;22.87;;;;;;;-1.30;100.00;103205.25;5037282;28;20130;-62
2024/01/12 02:13:37;;;;;;;38.07;21.63;;;;;;;-1.29;100.00;103196.88;5028810;28;20103;-62
2024/01/12 02:16:03;;;;;;;36.60;22.23;;;;;;;-1.29;100.00;103193.41;5026210;28;20037;-62
2024/01/12 02:18:28;;;;;;;38.73;22.47;;;;;;;-1.30;100.00;103189.06;5026999;28;20055;-62
2024/01/12 02:20:57;;;;;;;39.50;23.00;;;;;;;-1.29;100.00;103196.88;5036895;28;20496;-62
2024/01/12 02:23:22;;;;;;;40.30;22.70;;;;;;;-1.30;100.00;103190.00;5041577;28;20014;-62
2024/01/12 02:25:48;;;;;;;38.60;21.90;;;;;;;-1.28;100.00;103197.81;5034741;28;20075;-62
2024/01/12 02:28:14;;;;;;;36.83;22.37;;;;;;;-1.28;100.00;103193.63;5028022;28;20355;-62
2024/01/12 02:30:40;;;;;;;38.30;21.80;;;;;;;-1.29;100.00;103195.97;5036724;28;20686;-62
2024/01/12 02:33:08;;;;;;;37.87;23.00;;;;;;;-1.28;100.00;103195.25;5032272;28;20025;-62
2024/01/12 02:35:34;;;;;;;41.80;22.43;;;;;;;-1.28;100.00;103187.63;5045081;28;20425;-63
2024/01/12 02:38:00;;;;;;;40.00;23.10;;;;;;;-1.28;100.00;103192.72;5031896;28;20047;-62
2024/01/12 02:40:25;;;;;;;40.60;23.70;;;;;;;-1.28;100.00;103198.72;5045063;28;20459;-62
2024/01/12 02:42:50;;;;;;;42.87;22.53;;;;;;;-1.29;100.00;103196.88;5045319;28;20434;-62
2024/01/12 02:45:16;;;;;;;38.00;22.53;;;;;;;-1.29;100.00;103196.88;5045298;28;20024;-62
2024/01/12 02:47:42;;;;;;;42.37;24.03;;;;;;;-1.28;100.00;103200.34;5040871;28;20029;-62
2024/01/12 02:50:08;;;;;;;40.43;22.33;;;;;;;-1.29;100.00;103186.69;5025361;28;20379;-62
2024/01/12 02:52:35;;;;;;;38.97;22.87;;;;;;;-1.27;100.00;103189.44;5025767;28;20026;-62
2024/01/12 02:55:02;;;;;;;36.67;22.17;;;;;;;-1.28;100.00;103188.53;5025711;28;20744;-62
2024/01/12 02:57:27;;;;;;;38.40;22.67;;;;;;;-1.29;100.00;103181.63;5028709;28;20025;-62
2024/01/12 02:59:52;;;;;;;36.63;21.50;;;;;;;-1.28;100.00;103183.44;5045453;28;20358;-62
2024/01/12 03:02:18;;;;;;;34.97;21.73;;;;;;;-1.28;100.00;103175.81;5044396;28;20025;-62
2024/01/12 03:04:43;;;;;;;43.73;23.60;;;;;;;-1.28;100.00;103173.28;5044070;28;20550;-62
2024/01/12 03:07:08;;;;;;;33.90;21.17;;;;;;;-1.28;100.00;103177.44;5043213;28;20035;-62
2024/01/12 03:09:33;;;;;;;40.33;23.10;;;;;;;-1.28;100.00;103173.28;5044700;28;20082;-62
2024/01/12 03:11:59;;;;;;;39.03;21.97;;;;;;;-1.28;100.00;103178.34;5043685;28;20112;-61
2024/01/12 03:14:25;;;;;;;39.77;22.97;;;;;;;-1.28;100.00;103178.34;5045094;28;20037;-62
2024/01/12 03:16:50;;;;;;;34.77;20.77;;;;;;;-1.29;100.00;103168.88;5043867;28;20376;-62
2024/01/12 03:19:15;;;;;;;41.57;22.63;;;;;;;-1.29;100.00;103171.44;5044376;28;20370;-62
2024/01/12 03:21:41;;;;;;;36.33;23.10;;;;;;;-1.30;100.00;103172.19;5042992;28;20021;-62
2024/01/12 03:24:06;;;;;;;39.43;22.67;;;;;;;-1.29;100.00;103176.53;5034599;28;20031;-62
2024/01/12 03:26:36;;;;;;;37.30;22.00;;;;;;;-1.28;100.00;103168.19;5037676;28;20067;-63
2024/01/12 03:29:01;;;;;;;39.50;22.73;;;;;;;-1.28;100.00;103167.25;5043710;28;20052;-62
2024/01/12 03:31:26;;;;;;;35.97;21.60;;;;;;;-1.29;100.00;103160.34;5042110;28;20106;-62
2024/01/12 03:33:52;;;;;;;40.30;23.90;;;;;;;-1.29;100.00;103167.97;5043500;28;20029;-62
2024/01/12 03:36:18;;;;;;;37.27;22.30;;;;;;;-1.29;100.00;103171.44;5042578;28;20346;-62
2024/01/12 03:38:45;;;;;;;39.67;22.13;;;;;;;-1.28;100.00;103172.34;5044534;28;20468;-63
2024/01/12 03:41:10;;;;;;;38.33;22.90;;;;;;;-1.29;100.00;103166.34;5036894;28;20028;-62
2024/01/12 03:43:35;;;;;;;37.47;21.47;;;;;;;-1.29;100.00;103168.88;5045009;28;20051;-62
2024/01/12 03:46:01;;;;;;;35.97;21.20;;;;;;;-1.31;100.00;103167.78;5043794;28;20033;-62
2024/01/12 03:48:26;;;;;;;39.23;22.23;;;;;;;-1.30;100.00;103164.53;5033839;28;20456;-62
2024/01/12 03:50:51;;;;;;;42.47;23.67;;;;;;;-1.29;100.00;103167.97;5037258;28;20470;-62
2024/01/12 03:53:16;;;;;;;39.37;22.53;;;;;;;-1.31;100.00;103162.72;5023976;28;20080;-62
2024/01/12 03:55:42;;;;;;;39.83;21.70;;;;;;;-1.30;100.00;103156.91;5023875;28;20486;-62
2024/01/12 03:58:07;;;;;;;40.97;21.43;;;;;;;-1.31;100.00;103162.72;5033655;28;20025;-62
2024/01/12 04:00:32;;;;;;;36.07;21.87;;;;;;;-1.30;100.00;103158.53;5043803;28;20133;-62
2024/01/12 04:02:57;;;;;;;38.90;22.07;;;;;;;-1.30;100.00;103153.44;5044258;28;20460;-62
2024/01/12 04:05:23;;;;;;;40.30;22.77;;;;;;;-1.30;100.00;103148.34;5042856;28;20060;-62
2024/01/12 04:07:48;;;;;;;38.30;22.57;;;;;;;-1.29;100.00;103150.16;5043384;28;20036;-62
2024/01/12 04:10:13;;;;;;;40.43;22.53;;;;;;;-1.29;100.00;103146.00;5042776;28;20033;-63
2024/01/12 04:12:39;;;;;;;39.67;23.07;;;;;;;-1.29;100.00;103140.91;5043698;28;20029;-63
2024/01/12 04:15:05;;;;;;;34.07;20.40;;;;;;;-1.28;100.00;103149.44;5041776;28;20298;-63
2024/01/12 04:17:31;;;;;;;37.93;21.90;;;;;;;-1.29;100.00;103151.06;5043611;28;20024;-62
2024/01/12 04:19:56;;;;;;;38.50;22.17;;;;;;;-1.28;100.00;103147.81;5025939;28;20025;-62
2024/01/12 04:22:21;;;;;;;37.83;21.77;;;;;;;-1.28;100.00;103147.81;5025001;28;20025;-62
2024/01/12 04:24:46;;;;;;;41.93;22.40;;;;;;;-1.28;100.00;103152.00;5040569;28;20017;-62
2024/01/12 04:27:12;;;;;;;36.13;21.33;;;;;;;-1.27;100.00;103144.53;5041096;28;20021;-63
2024/01/12 04:29:37;;;;;;;44.50;23.80;;;;;;;-1.27;100.00;103149.63;5039938;28;20029;-62
2024/01/12 04:32:02;;;;;;;41.43;23.53;;;;;;;-1.29;100.00;103156.16;5024021;28;20029;-62
2024/01/12 04:34:28;;;;;;;39.63;23.00;;;;;;;-1.27;100.00;103156.34;5024033;28;20028;-61
2024/01/12 04:36:55;;;;;;;47.50;25.37;;;;;;;-1.27;100.00;103161.44;5024682;28;20025;-62
2024/01/12 04:39:21;;;;;;;39.90;24.03;;;;;;;-1.27;100.00;103164.91;5025358;28;20029;-62
2024/01/12 04:41:47;;;;;;;42.53;24.23;;;;;;;-1.28;100.00;103158.00;5025240;28;20017;-62
2024/01/12 04:44:12;;;;;;;40.47;23.17;;;;;;;-1.27;100.00;103158.88;5025396;28;20025;-62
2024/01/12 04:46:37;;;;;;;40.03;24.00;;;;;;;-1.28;100.00;103163.09;5028973;28;20105;-63
2024/01/12 04:49:02;;;;;;;42.23;25.00;;;;;;;-1.26;100.00;103166.69;5026115;28;20374;-61
2024/01/12 04:51:28;;;;;;;39.83;22.50;;;;;;;-1.25;100.00;103167.63;5018272;28;20517;-62
2024/01/12 04:53:53;;;;;;;39.37;22.63;;;;;;;-1.26;100.00;103156.53;5028808;28;20070;-61
2024/01/12 04:56:18;;;;;;;41.03;22.83;;;;;;;-1.26;100.00;103164.16;5028919;28;20055;-62
2024/01/12 04:58:44;;;;;;;40.53;23.67;;;;;;;-1.25;100.00;103168.53;5040990;28;20629;-63
2024/01/12 05:01:09;;;;;;;40.70;24.67;;;;;;;-1.24;100.00;103159.28;5027711;28;20053;-62
2024/01/12 05:03:34;;;;;;;41.63;23.47;;;;;;;-1.26;100.00;103153.97;5028152;28;20469;-62
2024/01/12 05:05:59;;;;;;;37.80;23.83;;;;;;;-1.25;100.00;103159.97;5028606;28;20132;-62
2024/01/12 05:08:25;;;;;;;45.43;25.10;;;;;;;-1.24;100.00;103155.06;5028347;28;20056;-62
2024/01/12 05:10:50;;;;;;;42.07;24.10;;;;;;;-1.24;100.00;103152.53;5028631;28;20036;-62
2024/01/12 05:13:15;;;;;;;41.37;24.43;;;;;;;-1.24;100.00;103149.09;5028224;28;20025;-62
2024/01/12 05:15:40;;;;;;;40.67;23.57;;;;;;;-1.24;100.00;103139.78;5028193;28;20025;-62
2024/01/12 05:18:06;;;;;;;36.90;21.57;;;;;;;-1.23;100.00;103138.16;5028674;28;20025;-63
2024/01/12 05:20:32;;;;;;;42.63;23.93;;;;;;;-1.24;100.00;103127.06;5028806;28;20021;-62
2024/01/12 05:22:57;;;;;;;45.30;24.93;;;;;;;-1.24;100.00;103134.72;5027438;28;20381;-62
2024/01/12 05:25:22;;;;;;;41.87;23.47;;;;;;;-1.23;100.00;103143.25;5026175;28;20130;-62
2024/01/12 05:27:48;;;;;;;41.57;23.80;;;;;;;-1.22;100.00;103139.97;5027381;28;20029;-62
2024/01/12 05:30:13;;;;;;;42.30;24.53;;;;;;;-1.23;100.00;103136.53;5028073;28;20021;-62
2024/01/12 05:32:38;;;;;;;39.63;22.83;;;;;;;-1.21;100.00;103134.19;5027973;28;20033;-62
2024/01/12 05:35:04;;;;;;;41.30;23.20;;;;;;;-1.21;100.00;103129.09;5027890;28;20038;-60
2024/01/12 05:37:29;;;;;;;46.37;23.57;;;;;;;-1.20;100.00;103130.88;5027895;28;20094;-62
2024/01/12 05:39:55;;;;;;;41.80;23.10;;;;;;;-1.20;100.00;103125.78;5026956;28;20371;-62
2024/01/12 05:42:20;;;;;;;41.67;22.63;;;;;;;-1.20;100.00;103125.78;5024629;28;20405;-62
2024/01/12 05:44:45;;;;;;;36.77;21.40;;;;;;;-1.19;100.00;103142.00;5040152;28;20041;-62
2024/01/12 05:47:10;;;;;;;41.40;23.27;;;;;;;-1.19;100.00;103144.53;5046554;28;20052;-63
2024/01/12 05:49:37;;;;;;;39.77;22.70;;;;;;;-1.17;100.00;103145.63;5040315;28;20073;-62
2024/01/12 05:52:03;;;;;;;42.13;22.00;;;;;;;-1.17;100.00;103145.63;5026219;28;20033;-62
2024/01/12 05:54:28;;;;;;;38.60;22.37;;;;;;;-1.18;100.00;103147.25;5032374;28;20541;-62
2024/01/12 05:56:53;;;;;;;41.07;23.17;;;;;;;-1.17;100.00;103150.72;5032505;28;20112;-62
2024/01/12 05:59:19;;;;;;;42.63;22.77;;;;;;;-1.18;100.00;103139.63;5026507;28;20448;-62
2024/01/12 06:01:44;;;;;;;37.70;22.83;;;;;;;-1.15;100.00;103160.31;5039512;28;20111;-62
2024/01/12 06:04:09;;;;;;;38.20;21.23;;;;;;;-1.14;100.00;103161.25;5045440;28;20025;-62
2024/01/12 06:06:34;;;;;;;36.23;22.17;;;;;;;-1.15;100.00;103156.91;5045974;28;20098;-62
2024/01/12 06:09:00;;;;;;;41.43;22.70;;;;;;;-1.15;100.00;103160.31;5044844;28;20072;-62
2024/01/12 06:11:25;;;;;;;37.37;20.97;;;;;;;-1.14;100.00;103161.25;5033479;28;20319;-62
2024/01/12 06:13:50;;;;;;;38.50;20.67;;;;;;;-1.14;100.00;103151.97;5042863;28;20029;-62
2024/01/12 06:16:15;;;;;;;33.93;20.30;;;;;;;-1.13;100.00;103155.41;5044979;28;20466;-62
2024/01/12 06:18:41;;;;;;;33.73;17.77;;;;;;;-1.12;100.00;103159.78;5035016;28;20033;-63
2024/01/12 06:21:06;;;;;;;33.17;16.87;;;;;;;-1.10;100.00;103163.44;5024997;28;20040;-61
2024/01/12 06:23:31;;;;;;;36.40;17.70;;;;;;;-1.08;100.00;103172.16;5025149;28;20026;-62
2024/01/12 06:25:57;;;;;;;31.70;16.77;;;;;;;-1.06;100.00;103170.69;5028339;28;20029;-62
2024/01/12 06:28:22;;;;;;;33.53;18.17;;;;;;;-1.06;100.00;103170.69;5028623;28;20489;-62
2024/01/12 06:30:47;;;;;;;34.10;17.37;;;;;;;-1.05;100.00;103167.41;5028361;28;20115;-63
2024/01/12 06:33:16;;;;;;;28.67;16.70;;;;;;;-1.04;100.00;103173.44;5027925;28;20060;-63
2024/01/12 06:35:41;;;;;;;31.67;17.23;;;;;;;-1.04;100.00;103171.78;5028077;28;20386;-63
2024/01/12 06:38:06;;;;;;;30.30;16.57;;;;;;;-1.03;100.00;103176.16;5028160;28;20025;-63
2024/01/12 06:40:32;;;;;;;29.87;17.23;;;;;;;-1.02;100.00;103177.94;5024611;28;20255;-63
2024/01/12 06:42:57;;;;;;;31.77;17.20;;;;;;;-1.02;100.00;103172.84;5024468;28;20466;-63
2024/01/12 06:45:22;;;;;;;29.67;16.87;;;;;;;-1.01;100.00;103178.88;5038501;28;20032;-63
2024/01/12 06:47:48;;;;;;;30.80;16.93;;;;;;;-1.01;100.00;103173.78;5038672;28;20138;-63
2024/01/12 06:50:13;;;;;;;30.57;16.17;;;;;;;-1.00;100.00;103184.13;5038499;28;20114;-63
2024/01/12 06:52:38;;;;;;;28.97;15.57;;;;;;;-1.01;100.00;103184.84;5036140;28;20386;-63
2024/01/12 06:55:04;;;;;;;30.80;15.67;;;;;;;-1.00;100.00;103176.50;5036668;28;20024;-63
2024/01/12 06:57:30;;;;;;;32.77;14.90;;;;;;;-1.00;100.00;103186.69;5026918;28;20539;-64
2024/01/12 06:59:55;;;;;;;28.37;16.20;;;;;;;-0.98;100.00;103189.41;5037576;28;20031;-63
2024/01/12 07:02:20;;;;;;;28.73;15.03;;;;;;;-0.97;100.00;103181.03;5026415;28;20547;-64
2024/01/12 07:04:46;;;;;;;32.80;15.80;;;;;;;-0.96;100.00;103182.84;5045346;28;20033;-63
2024/01/12 07:07:11;;;;;;;31.73;14.77;;;;;;;-0.96;100.00;103175.22;5027424;28;20025;-63
2024/01/12 07:09:37;;;;;;;25.43;14.97;;;;;;;-0.95;100.00;103179.56;5025101;28;20439;-63
2024/01/12 07:12:03;;;;;;;24.77;14.23;;;;;;;-0.95;100.00;103174.47;5027087;28;20455;-63
2024/01/12 07:14:28;;;;;;;30.77;14.77;;;;;;;-0.95;100.00;103184.66;5027741;28;20022;-63
2024/01/12 07:16:53;;;;;;;27.90;15.13;;;;;;;-0.93;100.00;103177.19;5027173;28;20035;-63
2024/01/12 07:19:19;;;;;;;25.43;13.77;;;;;;;-0.94;100.00;103166.13;5026828;28;20160;-64
2024/01/12 07:21:44;;;;;;;22.30;13.07;;;;;;;-0.93;100.00;103172.09;5026338;28;20411;-63
2024/01/12 07:24:10;;;;;;;30.80;13.73;;;;;;;-0.91;100.00;103170.66;5027619;28;20416;-64
2024/01/12 07:26:35;;;;;;;26.37;15.27;;;;;;;-0.92;100.00;103158.66;5027026;28;20025;-64
2024/01/12 07:29:01;;;;;;;28.93;14.87;;;;;;;-0.90;100.00;103150.47;5027422;28;20350;-64
2024/01/12 07:31:27;;;;;;;28.73;14.67;;;;;;;-0.87;100.00;103163.56;5026798;28;20204;-64
2024/01/12 07:33:52;;;;;;;28.83;15.47;;;;;;;-0.86;100.00;103156.81;5025312;28;20021;-64
2024/01/12 07:36:17;;;;;;;27.10;15.30;;;;;;;-0.82;100.00;103155.53;5023668;28;20092;-63
2024/01/12 07:38:42;;;;;;;27.57;14.37;;;;;;;-0.81;100.00;103153.16;5023793;28;20025;-63
2024/01/12 07:41:08;;;;;;;26.40;13.63;;;;;;;-0.81;100.00;103157.38;5023034;28;20057;-64
2024/01/12 07:43:33;;;;;;;26.80;13.53;;;;;;;-0.81;100.00;103152.28;5023296;28;20022;-63
2024/01/12 07:45:59;;;;;;;31.87;14.17;;;;;;;-0.80;100.00;103156.63;5023172;28;20047;-63
2024/01/12 07:48:25;;;;;;;28.40;14.27;;;;;;;-0.79;100.00;103161.00;5023848;28;20355;-64
2024/01/12 07:50:50;;;;;;;32.47;15.83;;;;;;;-0.78;100.00;103163.72;5021610;28;20049;-63
2024/01/12 07:53:15;;;;;;;25.77;13.93;;;;;;;-0.77;100.00;103157.88;5024193;28;20384;-64
2024/01/12 07:55:41;;;;;;;23.80;13.90;;;;;;;-0.77;100.00;103147.69;5026303;28;20377;-63
2024/01/12 07:58:06;;;;;;;24.20;13.43;;;;;;;-0.78;100.00;103156.09;5025581;28;20056;-63
2024/01/12 08:00:32;;;;;;;24.43;13.70;;;;;;;-0.77;100.00;103150.25;5027087;28;20025;-63
2024/01/12 08:02:57;;;;;;;28.17;14.83;;;;;;;-0.77;100.00;103147.69;5026768;28;20095;-63
2024/01/12 08:05:22;;;;;;;28.67;14.83;;;;;;;-0.77;100.00;103147.69;5024351;28;20070;-63
2024/01/12 08:07:48;;;;;;;29.40;16.37;;;;;;;-0.75;100.00;103151.34;5026646;28;20060;-63
2024/01/12 08:10:17;;;;;;;31.60;16.37;;;;;;;-0.74;100.00;103150.59;5026469;28;20033;-62
2024/01/12 08:12:44;;;;;;;30.10;15.27;;;;;;;-0.73;100.00;103157.53;5026726;28;20112;-63
2024/01/12 08:15:09;;;;;;;23.43;14.27;;;;;;;-0.71;100.00;103159.31;5026990;28;20393;-63
2024/01/12 08:17:36;;;;;;;27.03;15.50;;;;;;;-0.73;100.00;103167.72;5016900;28;20035;-63
2024/01/12 08:20:01;;;;;;;25.63;15.00;;;;;;;-0.71;100.00;103159.31;5025398;28;20052;-63
2024/01/12 08:22:26;;;;;;;31.63;15.07;;;;;;;-0.71;100.00;103159.31;5027213;28;20284;-63
2024/01/12 08:24:51;;;;;;;30.60;16.67;;;;;;;-0.69;100.00;103162.97;5026401;28;20028;-63
2024/01/12 08:27:17;;;;;;;28.20;15.80;;;;;;;-0.68;100.00;103164.75;5026124;28;20025;-63
2024/01/12 08:29:43;;;;;;;31.43;15.87;;;;;;;-0.68;100.00;103159.66;5026119;28;20083;-63
2024/01/12 08:32:08;;;;;;;28.87;15.13;;;;;;;-0.67;100.00;103166.59;5026247;28;20474;-63
2024/01/12 08:34:33;;;;;;;22.87;14.33;;;;;;;-0.66;100.00;103166.78;5026172;28;20021;-63
2024/01/12 08:36:59;;;;;;;30.20;15.50;;;;;;;-0.65;100.00;103171.13;5026352;28;20031;-63
2024/01/12 08:39:24;;;;;;;26.60;14.53;;;;;;;-0.64;100.00;103174.59;5026591;28;20082;-63
2024/01/12 08:41:49;;;;;;;27.43;15.63;;;;;;;-0.64;100.00;103179.69;5025542;28;20100;-63
2024/01/12 08:44:15;;;;;;;32.17;16.53;;;;;;;-0.61;100.00;103177.47;5026388;28;20432;-63
2024/01/12 08:46:40;;;;;;;24.90;14.17;;;;;;;-0.59;100.00;103175.13;5025800;28;20033;-63
2024/01/12 08:49:05;;;;;;;26.20;14.97;;;;;;;-0.58;100.00;103177.84;5026129;28;20306;-63
2024/01/12 08:51:31;;;;;;;30.17;15.07;;;;;;;-0.58;100.00;103177.84;5025126;28;20152;-63
2024/01/12 08:53:56;;;;;;;24.93;15.73;;;;;;;-0.57;100.00;103174.56;5026313;28;20032;-63
2024/01/12 08:56:22;;;;;;;25.67;14.53;;;;;;;-0.55;100.00;103174.72;5026237;28;20533;-63
2024/01/12 08:58:47;;;;;;;29.43;16.23;;;;;;;-0.55;100.00;103157.81;5025527;28;20025;-63
2024/01/12 09:01:13;;;;;;;26.70;15.30;;;;;;;-0.52;100.00;103172.56;5017864;28;20541;-63
2024/01/12 09:03:38;;;;;;;27.93;15.47;;;;;;;-0.50;100.00;103171.97;5021990;28;20032;-63
2024/01/12 09:06:04;;;;;;;29.90;15.33;;;;;;;-0.49;100.00;103168.69;5026525;28;20029;-63
2024/01/12 09:08:29;;;;;;;25.23;14.30;;;;;;;-0.46;100.00;103169.78;5026808;28;20025;-63
2024/01/12 09:10:54;;;;;;;28.37;13.83;;;;;;;-0.44;100.00;103165.78;5026391;28;20033;-63
2024/01/12 09:13:20;;;;;;;24.70;14.13;;;;;;;-0.42;100.00;103164.31;5026827;28;20083;-63
2024/01/12 09:15:45;;;;;;;27.20;14.27;;;;;;;-0.41;100.00;103163.56;5024179;28;20033;-63
2024/01/12 09:18:10;;;;;;;23.70;13.80;;;;;;;-0.38;100.00;103171.59;5024347;28;20040;-63
2024/01/12 09:20:36;;;;;;;27.37;14.40;;;;;;;-0.38;100.00;103167.38;5024144;28;20477;-63
2024/01/12 09:23:01;;;;;;;25.37;14.43;;;;;;;-0.36;100.00;103180.31;5024073;28;20363;-63
2024/01/12 09:25:26;;;;;;;26.87;13.33;;;;;;;-0.35;100.00;103171.00;5024031;28;20072;-63
2024/01/12 09:27:52;;;;;;;29.47;15.27;;;;;;;-0.33;100.00;103170.47;5024345;28;20144;-63
2024/01/12 09:30:18;;;;;;;28.30;13.97;;;;;;;-0.28;100.00;103174.44;5025685;28;20485;-64
2024/01/12 09:32:44;;;;;;;29.27;14.50;;;;;;;-0.26;100.00;103165.34;5029423;28;20032;-63
2024/01/12 09:35:09;;;;;;;27.00;15.73;;;;;;;-0.22;100.00;103169.16;5029351;28;20025;-63
2024/01/12 09:37:34;;;;;;;25.77;14.87;;;;;;;-0.20;100.00;103171.88;5028910;28;20104;-63
2024/01/12 09:39:59;;;;;;;28.23;14.43;;;;;;;-0.17;100.00;103167.09;5029421;28;20087;-63
2024/01/12 09:42:30;;;;;;;28.93;14.00;;;;;;;-0.15;100.00;103179.31;5029402;28;20097;-63
2024/01/12 09:44:55;;;;;;;25.38;15.32;;;;;;;-0.13;100.00;103179.47;5029151;28;20123;-64
2024/01/12 09:47:20;;;;;;;23.63;14.50;;;;;;;-0.13;100.00;103180.34;5029281;28;20482;-63
2024/01/12 09:49:46;;;;;;;32.10;16.30;;;;;;;-0.10;100.00;103164.53;5029086;28;20055;-63
2024/01/12 09:52:11;;;;;;;23.90;14.83;;;;;;;-0.09;100.00;103168.88;5028297;28;20508;-63
2024/01/12 09:54:36;;;;;;;24.33;15.23;;;;;;;-0.06;100.00;103160.66;5029248;28;20268;-64
2024/01/12 09:57:04;;;;;;;25.37;14.70;;;;;;;-0.04;100.00;103160.13;5028859;28;20497;-63
2024/01/12 09:59:29;;;;;;;28.77;15.10;;;;;;;0.00;100.00;103161.38;5021685;28;20033;-63
2024/01/12 10:01:57;;;;;;;28.97;15.23;;;;;;;0.02;100.00;103161.53;5022647;28;20026;-63
2024/01/12 10:04:22;;;;;;;24.37;14.37;;;;;;;0.07;100.00;103168.06;5017196;28;20366;-63
2024/01/12 10:06:47;;;;;;;20.97;13.10;;;;;;;0.11;100.00;103154.91;5028675;28;20052;-64
2024/01/12 10:09:13;;;;;;;26.50;15.70;;;;;;;0.18;100.00;103151.44;5028373;28;20036;-63
2024/01/12 10:11:39;;;;;;;32.47;15.27;;;;;;;0.22;100.00;103151.94;5028459;28;20517;-63
2024/01/12 10:14:04;;;;;;;24.60;14.50;;;;;;;0.26;100.00;103159.91;5029268;28;20028;-63
2024/01/12 10:16:29;;;;;;;29.23;14.97;;;;;;;0.31;100.00;103156.22;5027480;28;20029;-64
2024/01/12 10:18:56;;;;;;;27.87;14.67;;;;;;;0.35;100.00;103163.50;5018361;28;20696;-63
2024/01/12 10:21:22;;;;;;;32.87;15.10;;;;;;;0.40;100.00;103171.66;5028476;28;20021;-63
2024/01/12 10:23:47;;;;;;;23.30;14.20;;;;;;;0.42;100.00;103175.28;5018812;28;20032;-63
2024/01/12 10:26:15;;;;;;;27.13;13.93;;;;;;;0.45;100.00;103168.88;5028053;28;20021;-63
2024/01/12 10:28:41;;;;;;;23.60;13.83;;;;;;;0.51;100.00;103167.75;5028031;28;20022;-64
2024/01/12 10:31:07;;;;;;;29.63;14.03;;;;;;;0.53;100.00;103166.25;5028337;28;20111;-64
2024/01/12 10:33:32;;;;;;;22.80;13.50;;;;;;;0.56;100.00;103169.16;5029444;28;20014;-64
2024/01/12 10:36:11;;;;;;;29.00;13.30;;;;;;;0.57;100.00;103163.31;5028912;28;20026;-64
2024/01/12 10:38:38;;;;;;;27.13;13.53;;;;;;;0.59;100.00;103156.75;5027702;28;20037;-64
2024/01/12 10:41:05;;;;;;;23.80;12.77;;;;;;;0.60;100.00;103150.91;5026965;28;20375;-64
2024/01/12 10:43:36;;;;;;;27.90;13.73;;;;;;;0.63;100.00;103145.22;5026713;28;20022;-63
2024/01/12 10:46:09;;;;;;;24.98;13.27;;;;;;;0.65;100.00;103148.88;5028128;28;20366;-63
2024/01/12 10:48:55;;;;;;;27.30;14.17;;;;;;;0.65;100.00;103149.75;5027634;28;20061;-62
2024/01/12 10:51:24;;;;;;;26.30;12.97;;;;;;;0.68;100.00;103142.44;5017363;28;20041;-63
2024/01/12 10:54:08;;;;;;;26.73;12.50;;;;;;;0.69;100.00;103143.34;5027266;28;20084;-63
2024/01/12 10:56:35;;;;;;;27.43;13.40;;;;;;;0.72;100.00;103138.56;5024162;28;20040;-63